Milton, Canada
Current Conditions -  °F | °C
As of 3:00 PM on Sunday 23 Nov 2014 (Local Time) from CYYZ Reporting Station
Broken Clouds Broken Clouds  
Wind Chill: 44°   Ceiling: 12000
Heat Index: 46°   Visibility: 12mi
Dew Point: 45°   Wind: 6mph
Humidity: 93%   Direction: 150°SSE
Pressure: 29.87"   Gusts: NA
Location:  43.51°N, 79.88°W
Report Text: CYYZ 232000Z 15005KT 12SM FEW012 SCT062 BKN120 08/07 A2987 RMK SF1SC2AC4 PRESFR SLP119
Loading
Personal Weather Stations






























Interactive Weather Map New forecast layout! Learn more

10-Day Weather Forecast

Advertisements
Track Severe Weather on mobile